Wetterdaten: Woche 16.03.15 - 22.03.15 (KW12)
Datum Zeit Temp. A. Feuchte A. Luftdruck Regen Wind Richtung Sonnenschein ET UV Solar Taupunkt Windchill Windben
16.03.2015 00:00 3,7 C 87 % 1026,8 hPa 0,0 l/m 4,7 km/h (1 Bft) O-SO 0,00 h 0,000 mm 0,0 UV-I 0 W/m 1,7 C 3,1 C 10,3 km/h (2 Bft)
16.03.2015 01:00 3,8 C 86 % 1026,7 hPa 0,0 l/m 6,2 km/h (2 Bft) O 0,00 h 0,000 mm 0,0 UV-I 0 W/m 1,6 C 2,7 C 11,7 km/h (2 Bft)
16.03.2015 02:00 4,2 C 85 % 1026,1 hPa 0,0 l/m 4,7 km/h (1 Bft) O-SO 0,00 h 0,025 mm 0,0 UV-I 0 W/m 1,8 C 3,7 C 9,6 km/h (2 Bft)
16.03.2015 03:00 4,6 C 83 % 1025,8 hPa 0,0 l/m 7,0 km/h (2 Bft) O-SO 0,00 h 0,025 mm 0,0 UV-I 0 W/m 2,0 C 3,4 C 13,6 km/h (3 Bft)
16.03.2015 04:00 4,7 C 82 % 1025,7 hPa 0,0 l/m 3,4 km/h (1 Bft) O 0,00 h 0,025 mm 0,0 UV-I 0 W/m 1,9 C 4,5 C 7,7 km/h (2 Bft)
16.03.2015 05:00 4,6 C 83 % 1025,7 hPa 0,0 l/m 3,4 km/h (1 Bft) O-SO 0,00 h 0,025 mm 0,0 UV-I 0 W/m 2,0 C 4,6 C 7,6 km/h (2 Bft)
16.03.2015 06:00 4,4 C 83 % 1025,7 hPa 0,0 l/m 5,4 km/h (1 Bft) O-SO 0,00 h 0,025 mm 0,0 UV-I 11 W/m 1,8 C 3,6 C 10,0 km/h (2 Bft)
16.03.2015 07:00 4,3 C 83 % 1026,0 hPa 0,0 l/m 6,2 km/h (2 Bft) SO 0,83 h 0,000 mm 0,0 UV-I 74 W/m 1,7 C 3,6 C 12,9 km/h (3 Bft)
16.03.2015 08:00 4,6 C 83 % 1026,1 hPa 0,0 l/m 9,2 km/h (2 Bft) O-SO 1,00 h 0,053 mm 0,7 UV-I 165 W/m 1,9 C 2,1 C 17,3 km/h (3 Bft)
16.03.2015 09:00 5,7 C 79 % 1026,0 hPa 0,0 l/m 10,1 km/h (2 Bft) O-SO 1,00 h 0,076 mm 1,1 UV-I 327 W/m 2,3 C 2,8 C 19,9 km/h (4 Bft)
16.03.2015 10:00 7,1 C 75 % 1025,8 hPa 0,0 l/m 7,9 km/h (2 Bft) O 1,00 h 0,152 mm 1,4 UV-I 328 W/m 2,9 C 5,5 C 14,3 km/h (3 Bft)
16.03.2015 11:00 8,5 C 68 % 1025,7 hPa 0,0 l/m 11,4 km/h (2 Bft) O 1,00 h 0,152 mm 2,2 UV-I 567 W/m 3,0 C 5,4 C 19,1 km/h (3 Bft)
16.03.2015 12:00 10,0 C 63 % 1025,7 hPa 0,0 l/m 12,7 km/h (3 Bft) SO 1,00 h 0,279 mm 2,3 UV-I 567 W/m 3,3 C 6,3 C 21,2 km/h (4 Bft)
16.03.2015 13:00 11,2 C 58 % 1025,4 hPa 0,0 l/m 11,5 km/h (2 Bft) SO 1,00 h 0,305 mm 2,2 UV-I 538 W/m 3,3 C 8,3 C 19,4 km/h (3 Bft)
16.03.2015 14:00 11,7 C 57 % 1025,1 hPa 0,0 l/m 11,5 km/h (2 Bft) SO 1,00 h 0,305 mm 1,7 UV-I 488 W/m 3,5 C 8,9 C 20,1 km/h (4 Bft)
16.03.2015 15:00 11,8 C 58 % 1025,0 hPa 0,0 l/m 10,5 km/h (2 Bft) SO 1,00 h 0,279 mm 1,1 UV-I 356 W/m 3,9 C 9,4 C 18,7 km/h (3 Bft)
16.03.2015 16:00 11,0 C 62 % 1025,3 hPa 0,0 l/m 10,5 km/h (2 Bft) SO 1,00 h 0,229 mm 0,7 UV-I 196 W/m 3,9 C 8,6 C 16,8 km/h (3 Bft)
16.03.2015 17:00 10,2 C 66 % 1025,4 hPa 0,0 l/m 5,5 km/h (2 Bft) O-SO 0,62 h 0,127 mm 0,0 UV-I 64 W/m 4,1 C 9,7 C 11,4 km/h (2 Bft)
16.03.2015 18:00 9,1 C 70 % 1025,8 hPa 0,0 l/m 4,7 km/h (1 Bft) O-SO 0,00 h 0,051 mm 0,0 UV-I 8 W/m 4,1 C 8,8 C 9,1 km/h (2 Bft)
16.03.2015 19:00 8,3 C 74 % 1026,1 hPa 0,0 l/m 7,3 km/h (2 Bft) O 0,00 h 0,025 mm 0,0 UV-I 0 W/m 3,9 C 7,2 C 13,3 km/h (3 Bft)
16.03.2015 20:00 7,8 C 75 % 1026,4 hPa 0,0 l/m 7,3 km/h (2 Bft) O-SO 0,00 h 0,025 mm 0,0 UV-I 0 W/m 3,6 C 6,6 C 14,3 km/h (3 Bft)
16.03.2015 21:00 7,2 C 75 % 1026,6 hPa 0,0 l/m 8,3 km/h (2 Bft) O-SO 0,00 h 0,027 mm 0,0 UV-I 0 W/m 3,1 C 5,5 C 16,2 km/h (3 Bft)
16.03.2015 22:00 6,7 C 76 % 1026,6 hPa 0,0 l/m 5,1 km/h (1 Bft) O-SO 0,00 h 0,025 mm 0,0 UV-I 0 W/m 2,8 C 6,3 C 11,0 km/h (2 Bft)
16.03.2015 23:00 6,3 C 77 % 1026,8 hPa 0,0 l/m 4,6 km/h (1 Bft) O-SO 0,00 h 0,025 mm 0,0 UV-I 0 W/m 2,6 C 6,2 C 10,0 km/h (2 Bft)
17.03.2015 00:00 5,7 C 79 % 1026,5 hPa 0,0 l/m 4,0 km/h (1 Bft) O-SO 0,00 h 0,025 mm 0,0 UV-I 0 W/m 2,3 C 5,6 C 8,7 km/h (2 Bft)
17.03.2015 01:00 5,2 C 81 % 1026,4 hPa 0,0 l/m 3,1 km/h (1 Bft) O-SO 0,00 h 0,025 mm 0,0 UV-I 0 W/m 2,1 C 5,2 C 8,0 km/h (2 Bft)
17.03.2015 02:00 4,9 C 81 % 1026,2 hPa 0,0 l/m 4,3 km/h (1 Bft) O 0,00 h 0,025 mm 0,0 UV-I 0 W/m 2,0 C 4,7 C 10,0 km/h (2 Bft)
17.03.2015 03:00 4,7 C 83 % 1026,3 hPa 0,0 l/m 6,4 km/h (2 Bft) O-NO 0,00 h 0,025 mm 0,0 UV-I 0 W/m 2,1 C 3,9 C 11,8 km/h (2 Bft)
17.03.2015 04:00 4,5 C 85 % 1026,4 hPa 0,0 l/m 6,6 km/h (2 Bft) O 0,00 h 0,000 mm 0,0 UV-I 0 W/m 2,2 C 3,6 C 11,6 km/h (2 Bft)
17.03.2015 05:00 4,3 C 86 % 1026,3 hPa 0,0 l/m 4,3 km/h (1 Bft) O-NO 0,00 h 0,025 mm 0,0 UV-I 0 W/m 2,2 C 3,6 C 8,0 km/h (2 Bft)
17.03.2015 06:00 4,3 C 87 % 1026,5 hPa 0,0 l/m 5,9 km/h (2 Bft) O-NO 0,00 h 0,000 mm 0,0 UV-I 15 W/m 2,3 C 3,8 C 10,2 km/h (2 Bft)
17.03.2015 07:00 4,9 C 86 % 1026,7 hPa 0,0 l/m 5,4 km/h (1 Bft) O-NO 0,67 h 0,000 mm 0,5 UV-I 90 W/m 2,8 C 4,6 C 9,9 km/h (2 Bft)
17.03.2015 08:00 6,9 C 80 % 1027,1 hPa 0,0 l/m 6,2 km/h (2 Bft) O-SO 1,00 h 0,051 mm 0,7 UV-I 235 W/m 3,7 C 6,1 C 12,4 km/h (2 Bft)
17.03.2015 09:00 7,9 C 79 % 1027,0 hPa 0,0 l/m 9,7 km/h (2 Bft) O-SO 1,00 h 0,102 mm 0,9 UV-I 258 W/m 4,5 C 5,5 C 17,1 km/h (3 Bft)
17.03.2015 10:00 10,0 C 76 % 1027,1 hPa 0,0 l/m 8,6 km/h (2 Bft) O 1,00 h 0,000 mm 1,1 UV-I 291 W/m 6,0 C 8,4 C 15,6 km/h (3 Bft)
17.03.2015 11:00 10,3 C 67 % 1027,0 hPa 0,0 l/m 8,0 km/h (2 Bft) O 1,00 h 0,203 mm 1,8 UV-I 377 W/m 4,4 C 9,0 C 14,6 km/h (3 Bft)
17.03.2015 12:00 11,7 C 63 % 1026,5 hPa 0,0 l/m 8,0 km/h (2 Bft) O-SO 1,00 h 0,203 mm 2,1 UV-I 447 W/m 4,8 C 10,5 C 14,8 km/h (3 Bft)
17.03.2015 13:00 13,7 C 55 % 1025,8 hPa 0,0 l/m 7,6 km/h (2 Bft) SO 1,00 h 0,254 mm 2,3 UV-I 530 W/m 4,7 C 12,8 C 14,5 km/h (3 Bft)
17.03.2015 14:00 13,7 C 54 % 1025,4 hPa 0,0 l/m 7,6 km/h (2 Bft) O-SO 1,00 h 0,305 mm 1,6 UV-I 406 W/m 4,5 C 12,6 C 14,0 km/h (3 Bft)
17.03.2015 15:00 14,1 C 51 % 1025,0 hPa 0,0 l/m 8,0 km/h (2 Bft) O 1,00 h 0,254 mm 1,1 UV-I 290 W/m 4,1 C 12,9 C 14,4 km/h (3 Bft)
17.03.2015 16:00 12,9 C 53 % 1024,9 hPa 0,0 l/m 5,8 km/h (2 Bft) O-SO 1,00 h 0,203 mm 0,5 UV-I 97 W/m 3,5 C 12,5 C 11,9 km/h (2 Bft)
17.03.2015 17:00 12,0 C 54 % 1025,0 hPa 0,0 l/m 6,7 km/h (2 Bft) O-SO 0,27 h 0,076 mm 0,0 UV-I 39 W/m 2,9 C 11,2 C 13,1 km/h (3 Bft)
17.03.2015 18:00 11,1 C 56 % 1025,2 hPa 0,0 l/m 8,6 km/h (2 Bft) SO 0,00 h 0,051 mm 0,0 UV-I 6 W/m 2,6 C 9,5 C 17,2 km/h (3 Bft)
17.03.2015 19:00 10,1 C 59 % 1025,5 hPa 0,0 l/m 5,4 km/h (1 Bft) O-SO 0,00 h 0,051 mm 0,0 UV-I 0 W/m 2,4 C 9,6 C 11,2 km/h (2 Bft)
17.03.2015 20:00 9,2 C 61 % 1025,7 hPa 0,0 l/m 4,8 km/h (1 Bft) O 0,00 h 0,051 mm 0,0 UV-I 0 W/m 2,1 C 8,8 C 10,8 km/h (2 Bft)
17.03.2015 21:00 8,2 C 62 % 1025,9 hPa 0,0 l/m 6,2 km/h (2 Bft) O-SO 0,00 h 0,051 mm 0,0 UV-I 0 W/m 1,4 C 7,4 C 12,1 km/h (2 Bft)
17.03.2015 22:00 7,3 C 65 % 1026,0 hPa 0,0 l/m 4,6 km/h (1 Bft) O 0,00 h 0,051 mm 0,0 UV-I 0 W/m 1,1 C 6,9 C 10,0 km/h (2 Bft)
17.03.2015 23:00 6,6 C 67 % 1025,7 hPa 0,0 l/m 5,7 km/h (2 Bft) O 0,00 h 0,025 mm 0,0 UV-I 0 W/m 1,0 C 6,0 C 11,2 km/h (2 Bft)
18.03.2015 00:00 5,8 C 71 % 1025,4 hPa 0,0 l/m 3,1 km/h (1 Bft) O-NO 0,00 h 0,025 mm 0,0 UV-I 0 W/m 1,0 C 5,8 C 7,8 km/h (2 Bft)
18.03.2015 01:00 5,0 C 74 % 1025,4 hPa 0,0 l/m 2,4 km/h (1 Bft) NO 0,00 h 0,025 mm 0,0 UV-I 0 W/m 0,8 C 4,9 C 5,0 km/h (1 Bft)
18.03.2015 02:00 4,6 C 76 % 1025,1 hPa 0,0 l/m 2,7 km/h (1 Bft) NO 0,00 h 0,025 mm 0,0 UV-I 0 W/m 0,7 C 4,6 C 6,5 km/h (2 Bft)
18.03.2015 03:00 4,2 C 77 % 1024,9 hPa 0,0 l/m 5,2 km/h (1 Bft) O-NO 0,00 h 0,025 mm 0,0 UV-I 0 W/m 0,6 C 3,8 C 11,1 km/h (2 Bft)
18.03.2015 04:00 4,0 C 77 % 1024,9 hPa 0,0 l/m 4,7 km/h (1 Bft) O-NO 0,00 h 0,025 mm 0,0 UV-I 0 W/m 0,4 C 3,7 C 9,7 km/h (2 Bft)
18.03.2015 05:00 3,4 C 78 % 1025,0 hPa 0,0 l/m 2,1 km/h (1 Bft) N 0,00 h 0,025 mm 0,0 UV-I 0 W/m -0,1 C 3,4 C 4,6 km/h (1 Bft)
18.03.2015 06:00 2,4 C 81 % 1025,0 hPa 0,0 l/m 0,4 km/h (0 Bft) N 0,00 h 0,025 mm 0,0 UV-I 17 W/m -0,6 C 2,4 C 1,7 km/h (1 Bft)
18.03.2015 07:00 3,1 C 81 % 1025,2 hPa 0,0 l/m 1,2 km/h (1 Bft) N 0,67 h 0,000 mm 0,5 UV-I 101 W/m 0,2 C 3,1 C 2,7 km/h (1 Bft)
18.03.2015 08:00 6,7 C 76 % 1025,2 hPa 0,0 l/m 2,6 km/h (1 Bft) O-SO 1,00 h 0,025 mm 0,5 UV-I 179 W/m 2,8 C 6,6 C 6,0 km/h (2 Bft)
18.03.2015 09:00 8,5 C 76 % 1025,5 hPa 0,0 l/m 8,4 km/h (2 Bft) SO 1,00 h 0,000 mm 0,5 UV-I 179 W/m 4,5 C 6,7 C 14,7 km/h (3 Bft)
18.03.2015 10:00 9,6 C 76 % 1025,4 hPa 0,0 l/m 8,8 km/h (2 Bft) SO 1,00 h 0,000 mm 0,5 UV-I 179 W/m 5,6 C 7,7 C 14,2 km/h (3 Bft)
18.03.2015 11:00 11,6 C 69 % 1025,1 hPa 0,0 l/m 5,2 km/h (1 Bft) O-SO 1,00 h 0,000 mm 1,3 UV-I 333 W/m 5,8 C 11,2 C 10,9 km/h (2 Bft)
18.03.2015 12:00 13,3 C 46 % 1024,7 hPa 0,0 l/m 7,7 km/h (2 Bft) SO 1,00 h 0,356 mm 2,8 UV-I 656 W/m 2,0 C 12,2 C 14,0 km/h (3 Bft)
18.03.2015 13:00 13,7 C 43 % 1024,3 hPa 0,0 l/m 10,4 km/h (2 Bft) O-SO 1,00 h 0,381 mm 2,5 UV-I 616 W/m 1,3 C 11,5 C 18,0 km/h (3 Bft)
18.03.2015 14:00 14,0 C 40 % 1024,1 hPa 0,0 l/m 9,4 km/h (2 Bft) SO 1,00 h 0,381 mm 1,9 UV-I 531 W/m 0,7 C 12,3 C 16,9 km/h (3 Bft)
18.03.2015 15:00 13,8 C 42 % 1023,8 hPa 0,0 l/m 8,5 km/h (2 Bft) SO 1,00 h 0,330 mm 1,2 UV-I 394 W/m 1,2 C 12,3 C 15,2 km/h (3 Bft)
18.03.2015 16:00 13,5 C 44 % 1023,8 hPa 0,0 l/m 6,1 km/h (2 Bft) O-NO 1,00 h 0,254 mm 0,7 UV-I 215 W/m 1,4 C 12,9 C 11,5 km/h (2 Bft)
18.03.2015 17:00 12,3 C 48 % 1023,8 hPa 0,0 l/m 1,9 km/h (1 Bft) O-NO 0,55 h 0,152 mm 0,0 UV-I 61 W/m 1,6 C 12,2 C 4,7 km/h (1 Bft)
18.03.2015 18:00 10,6 C 54 % 1024,0 hPa 0,0 l/m 0,9 km/h (0 Bft) O-NO 0,00 h 0,051 mm 0,0 UV-I 8 W/m 1,8 C 10,6 C 3,1 km/h (1 Bft)
18.03.2015 19:00 8,8 C 63 % 1024,2 hPa 0,0 l/m 2,0 km/h (1 Bft) O-NO 0,00 h 0,025 mm 0,0 UV-I 0 W/m 2,1 C 8,8 C 5,1 km/h (1 Bft)
18.03.2015 20:00 7,3 C 70 % 1024,4 hPa 0,0 l/m 4,4 km/h (1 Bft) O-NO 0,00 h 0,025 mm 0,0 UV-I 0 W/m 2,1 C 7,2 C 9,0 km/h (2 Bft)
18.03.2015 21:00 6,5 C 72 % 1024,6 hPa 0,0 l/m 3,6 km/h (1 Bft) O-NO 0,00 h 0,025 mm 0,0 UV-I 0 W/m 1,9 C 6,5 C 8,0 km/h (2 Bft)
18.03.2015 22:00 6,0 C 74 % 1024,4 hPa 0,0 l/m 2,7 km/h (1 Bft) O-NO 0,00 h 0,025 mm 0,0 UV-I 0 W/m 1,6 C 6,0 C 6,1 km/h (2 Bft)
18.03.2015 23:00 5,0 C 76 % 1024,5 hPa 0,0 l/m 0,0 km/h (0 Bft) N 0,00 h 0,025 mm 0,0 UV-I 0 W/m 1,1 C 5,0 C 0,5 km/h (0 Bft)
19.03.2015 00:00 3,5 C 79 % 1024,4 hPa 0,0 l/m 0,0 km/h (0 Bft) N 0,00 h 0,025 mm 0,0 UV-I 0 W/m 0,2 C 3,5 C 0,0 km/h (0 Bft)
19.03.2015 01:00 1,8 C 84 % 1024,3 hPa 0,0 l/m 0,0 km/h (0 Bft) N 0,00 h 0,000 mm 0,0 UV-I 0 W/m -0,7 C 1,8 C 0,2 km/h (0 Bft)
19.03.2015 02:00 0,7 C 86 % 1024,4 hPa 0,0 l/m 0,0 km/h (0 Bft) N 0,00 h 0,000 mm 0,0 UV-I 0 W/m -1,3 C 0,7 C 0,2 km/h (0 Bft)
19.03.2015 03:00 -0,1 C 88 % 1024,3 hPa 0,0 l/m 0,0 km/h (0 Bft) N 0,00 h 0,000 mm 0,0 UV-I 0 W/m -1,8 C -0,1 C 0,0 km/h (0 Bft)
19.03.2015 04:00 -0,9 C 89 % 1024,3 hPa 0,0 l/m 0,0 km/h (0 Bft) N 0,00 h 0,000 mm 0,0 UV-I 0 W/m -2,4 C -0,9 C 0,0 km/h (0 Bft)
19.03.2015 05:00 -1,4 C 90 % 1024,7 hPa 0,0 l/m 0,0 km/h (0 Bft) N 0,00 h 0,000 mm 0,0 UV-I 0 W/m -2,8 C -1,4 C 0,1 km/h (0 Bft)
19.03.2015 06:00 -1,8 C 91 % 1025,2 hPa 0,0 l/m 0,0 km/h (0 Bft) N 0,00 h 0,000 mm 0,0 UV-I 15 W/m -3,0 C -1,8 C 0,0 km/h (0 Bft)
19.03.2015 07:00 -1,1 C 93 % 1025,7 hPa 0,0 l/m 0,0 km/h (0 Bft) N 0,60 h 0,000 mm 0,5 UV-I 100 W/m -2,1 C -1,1 C 0,1 km/h (0 Bft)
19.03.2015 08:00 3,1 C 85 % 1026,0 hPa 0,0 l/m 0,1 km/h (0 Bft) N 1,00 h 0,025 mm 0,8 UV-I 291 W/m 0,8 C 3,1 C 0,4 km/h (0 Bft)
19.03.2015 09:00 7,9 C 68 % 1026,0 hPa 0,0 l/m 0,5 km/h (0 Bft) N 1,00 h 0,102 mm 1,4 UV-I 456 W/m 2,3 C 7,9 C 1,7 km/h (1 Bft)
19.03.2015 10:00 10,7 C 54 % 1025,9 hPa 0,0 l/m 0,9 km/h (0 Bft) N 1,00 h 0,203 mm 2,1 UV-I 570 W/m 1,7 C 10,7 C 2,3 km/h (1 Bft)
19.03.2015 11:00 12,1 C 46 % 1025,8 hPa 0,0 l/m 2,5 km/h (1 Bft) N 1,00 h 0,279 mm 2,7 UV-I 638 W/m 1,0 C 12,1 C 5,1 km/h (1 Bft)
19.03.2015 12:00 13,0 C 43 % 1025,5 hPa 0,0 l/m 4,3 km/h (1 Bft) S 1,00 h 0,330 mm 2,8 UV-I 654 W/m 0,8 C 12,6 C 7,6 km/h (2 Bft)
19.03.2015 13:00 13,7 C 41 % 1024,9 hPa 0,0 l/m 2,1 km/h (1 Bft) N 1,00 h 0,356 mm 2,5 UV-I 617 W/m 0,7 C 13,7 C 5,0 km/h (1 Bft)
19.03.2015 14:00 14,7 C 40 % 1024,4 hPa 0,0 l/m 2,8 km/h (1 Bft) N 1,00 h 0,330 mm 1,9 UV-I 537 W/m 1,3 C 14,7 C 5,3 km/h (1 Bft)
19.03.2015 15:00 14,0 C 41 % 1024,1 hPa 0,0 l/m 2,2 km/h (1 Bft) N 1,00 h 0,305 mm 1,1 UV-I 362 W/m 1,0 C 14,0 C 4,6 km/h (1 Bft)
19.03.2015 16:00 13,7 C 40 % 1023,9 hPa 0,0 l/m 3,7 km/h (1 Bft) N 1,00 h 0,203 mm 0,6 UV-I 223 W/m 0,3 C 13,6 C 6,5 km/h (2 Bft)
19.03.2015 17:00 12,6 C 42 % 1024,0 hPa 0,0 l/m 2,8 km/h (1 Bft) N-NO 0,63 h 0,152 mm 0,0 UV-I 71 W/m 0,0 C 12,5 C 5,5 km/h (2 Bft)
19.03.2015 18:00 10,4 C 47 % 1024,4 hPa 0,0 l/m 0,8 km/h (0 Bft) N-NO 0,00 h 0,051 mm 0,0 UV-I 10 W/m -0,4 C 10,4 C 2,5 km/h (1 Bft)
19.03.2015 19:00 8,7 C 57 % 1025,0 hPa 0,0 l/m 2,8 km/h (1 Bft) N 0,00 h 0,025 mm 0,0 UV-I 0 W/m 0,8 C 8,6 C 5,5 km/h (2 Bft)
19.03.2015 20:00 7,6 C 61 % 1025,2 hPa 0,0 l/m 0,2 km/h (0 Bft) N 0,00 h 0,025 mm 0,0 UV-I 0 W/m 0,6 C 7,6 C 0,9 km/h (0 Bft)
19.03.2015 21:00 5,5 C 70 % 1025,5 hPa 0,0 l/m 0,1 km/h (0 Bft) N 0,00 h 0,025 mm 0,0 UV-I 0 W/m 0,4 C 5,5 C 0,4 km/h (0 Bft)
19.03.2015 22:00 3,5 C 78 % 1025,5 hPa 0,0 l/m 0,0 km/h (0 Bft) N 0,00 h 0,025 mm 0,0 UV-I 0 W/m -0,0 C 3,5 C 0,0 km/h (0 Bft)
19.03.2015 23:00 2,1 C 81 % 1025,4 hPa 0,0 l/m 0,0 km/h (0 Bft) N 0,00 h 0,000 mm 0,0 UV-I 0 W/m -0,8 C 2,1 C 0,0 km/h (0 Bft)
20.03.2015 00:00 0,8 C 85 % 1025,3 hPa 0,0 l/m 0,0 km/h (0 Bft) N 0,00 h 0,000 mm 0,0 UV-I 0 W/m -1,4 C 0,8 C 0,1 km/h (0 Bft)
20.03.2015 01:00 -0,1 C 88 % 1025,3 hPa 0,0 l/m 0,0 km/h (0 Bft) N 0,00 h 0,000 mm 0,0 UV-I 0 W/m -1,9 C -0,1 C 0,2 km/h (0 Bft)
20.03.2015 02:00 -0,9 C 88 % 1025,1 hPa 0,0 l/m 0,0 km/h (0 Bft) N 0,00 h 0,000 mm 0,0 UV-I 0 W/m -2,6 C -0,9 C 0,0 km/h (0 Bft)
20.03.2015 03:00 -1,4 C 90 % 1024,9 hPa 0,0 l/m 0,0 km/h (0 Bft) N 0,00 h 0,000 mm 0,0 UV-I 0 W/m -2,9 C -1,4 C 0,0 km/h (0 Bft)
20.03.2015 04:00 -1,9 C 90 % 1024,6 hPa 0,0 l/m 0,0 km/h (0 Bft) N 0,00 h 0,000 mm 0,0 UV-I 0 W/m -3,3 C -1,9 C 0,0 km/h (0 Bft)
20.03.2015 05:00 -2,4 C 91 % 1024,5 hPa 0,0 l/m 0,0 km/h (0 Bft) N 0,00 h 0,000 mm 0,0 UV-I 0 W/m -3,7 C -2,4 C 0,0 km/h (0 Bft)
20.03.2015 06:00 -2,7 C 92 % 1024,8 hPa 0,0 l/m 0,0 km/h (0 Bft) N 0,00 h 0,000 mm 0,0 UV-I 15 W/m -3,9 C -2,7 C 0,0 km/h (0 Bft)
20.03.2015 07:00 -1,9 C 92 % 1024,9 hPa 0,0 l/m 0,0 km/h (0 Bft) N 0,67 h 0,000 mm 0,5 UV-I 104 W/m -3,0 C -1,9 C 0,3 km/h (0 Bft)
20.03.2015 08:00 1,6 C 85 % 1024,9 hPa 0,0 l/m 0,0 km/h (0 Bft) N 1,00 h 0,025 mm 0,8 UV-I 313 W/m -0,7 C 1,6 C 0,7 km/h (0 Bft)
20.03.2015 09:00 5,5 C 71 % 1024,6 hPa 0,0 l/m 0,2 km/h (0 Bft) N 1,00 h 0,102 mm 1,4 UV-I 445 W/m 0,6 C 5,5 C 1,5 km/h (1 Bft)
20.03.2015 10:00 7,7 C 58 % 1024,3 hPa 0,0 l/m 0,6 km/h (0 Bft) W-SW 1,00 h 0,178 mm 0,8 UV-I 239 W/m -0,0 C 7,7 C 2,2 km/h (1 Bft)
20.03.2015 11:00 9,0 C 54 % 1024,0 hPa 0,0 l/m 1,8 km/h (1 Bft) SW 1,00 h 0,102 mm 2,0 UV-I 493 W/m 0,2 C 9,0 C 3,9 km/h (1 Bft)
20.03.2015 12:00 11,4 C 46 % 1023,6 hPa 0,0 l/m 2,4 km/h (1 Bft) N 1,00 h 0,229 mm 2,7 UV-I 655 W/m 0,2 C 11,3 C 5,2 km/h (1 Bft)
20.03.2015 13:00 12,4 C 41 % 1022,9 hPa 0,0 l/m 4,9 km/h (1 Bft) S 1,00 h 0,330 mm 2,6 UV-I 628 W/m -0,6 C 12,2 C 8,4 km/h (2 Bft)
20.03.2015 14:00 13,1 C 33 % 1022,2 hPa 0,0 l/m 4,3 km/h (1 Bft) S 1,00 h 0,356 mm 2,1 UV-I 555 W/m -2,9 C 12,8 C 7,8 km/h (2 Bft)
20.03.2015 15:00 12,9 C 32 % 1021,5 hPa 0,0 l/m 4,2 km/h (1 Bft) S 1,00 h 0,305 mm 1,3 UV-I 404 W/m -3,5 C 12,8 C 7,3 km/h (2 Bft)
20.03.2015 16:00 12,7 C 35 % 1020,7 hPa 0,0 l/m 3,3 km/h (1 Bft) S-SO 1,00 h 0,229 mm 0,7 UV-I 229 W/m -2,4 C 12,6 C 5,8 km/h (2 Bft)
20.03.2015 17:00 11,8 C 39 % 1020,2 hPa 0,0 l/m 2,1 km/h (1 Bft) S 0,62 h 0,152 mm 0,0 UV-I 74 W/m -1,8 C 11,8 C 4,1 km/h (1 Bft)
20.03.2015 18:00 9,1 C 51 % 1020,0 hPa 0,0 l/m 0,0 km/h (0 Bft) N 0,00 h 0,051 mm 0,0 UV-I 10 W/m -0,7 C 9,1 C 0,2 km/h (0 Bft)
20.03.2015 19:00 6,7 C 63 % 1020,0 hPa 0,0 l/m 0,2 km/h (0 Bft) N 0,00 h 0,000 mm 0,0 UV-I 0 W/m 0,0 C 6,7 C 1,1 km/h (1 Bft)
20.03.2015 20:00 4,7 C 70 % 1020,1 hPa 0,0 l/m 0,0 km/h (0 Bft) N 0,00 h 0,025 mm 0,0 UV-I 0 W/m -0,3 C 4,7 C 0,1 km/h (0 Bft)
20.03.2015 21:00 2,7 C 77 % 1020,1 hPa 0,0 l/m 0,2 km/h (0 Bft) N 0,00 h 0,025 mm 0,0 UV-I 0 W/m -0,9 C 2,7 C 0,7 km/h (0 Bft)
20.03.2015 22:00 1,3 C 81 % 1019,8 hPa 0,0 l/m 0,0 km/h (0 Bft) N 0,00 h 0,000 mm 0,0 UV-I 0 W/m -1,6 C 1,3 C 0,0 km/h (0 Bft)
20.03.2015 23:00 0,2 C 84 % 1019,2 hPa 0,0 l/m 0,0 km/h (0 Bft) N 0,00 h 0,000 mm 0,0 UV-I 0 W/m -2,1 C 0,2 C 0,0 km/h (0 Bft)
21.03.2015 00:00 -0,7 C 87 % 1018,6 hPa 0,0 l/m 0,1 km/h (0 Bft) N 0,00 h 0,000 mm 0,0 UV-I 0 W/m -2,6 C -0,7 C 0,5 km/h (0 Bft)
21.03.2015 01:00 -1,4 C 88 % 1018,3 hPa 0,0 l/m 0,1 km/h (0 Bft) N 0,00 h 0,000 mm 0,0 UV-I 0 W/m -3,1 C -1,4 C 0,4 km/h (0 Bft)
21.03.2015 02:00 -1,9 C 89 % 1017,6 hPa 0,0 l/m 0,0 km/h (0 Bft) N 0,00 h 0,000 mm 0,0 UV-I 0 W/m -3,4 C -1,9 C 0,0 km/h (0 Bft)
21.03.2015 03:00 -2,4 C 90 % 1017,0 hPa 0,0 l/m 0,0 km/h (0 Bft) N 0,00 h 0,000 mm 0,0 UV-I 0 W/m -3,9 C -2,4 C 0,0 km/h (0 Bft)
21.03.2015 04:00 -2,8 C 91 % 1016,6 hPa 0,0 l/m 0,0 km/h (0 Bft) N 0,00 h 0,000 mm 0,0 UV-I 0 W/m -4,0 C -2,8 C 0,2 km/h (0 Bft)
21.03.2015 05:00 -2,9 C 92 % 1016,2 hPa 0,0 l/m 0,0 km/h (0 Bft) N 0,00 h 0,000 mm 0,0 UV-I 0 W/m -4,0 C -2,9 C 0,0 km/h (0 Bft)
21.03.2015 06:00 -3,3 C 91 % 1016,1 hPa 0,0 l/m 0,0 km/h (0 Bft) N 0,00 h 0,000 mm 0,0 UV-I 18 W/m -4,6 C -3,3 C 0,0 km/h (0 Bft)
21.03.2015 07:00 -2,3 C 92 % 1016,1 hPa 0,0 l/m 0,0 km/h (0 Bft) N 0,77 h 0,000 mm 0,5 UV-I 105 W/m -3,4 C -2,3 C 0,2 km/h (0 Bft)
21.03.2015 08:00 1,7 C 84 % 1015,7 hPa 0,0 l/m 0,1 km/h (0 Bft) N 1,00 h 0,025 mm 0,8 UV-I 290 W/m -0,8 C 1,7 C 0,4 km/h (0 Bft)
21.03.2015 09:00 6,5 C 64 % 1015,2 hPa 0,0 l/m 6,1 km/h (2 Bft) S 1,00 h 0,102 mm 1,4 UV-I 436 W/m 0,2 C 5,9 C 10,1 km/h (2 Bft)
21.03.2015 10:00 8,8 C 56 % 1014,8 hPa 0,0 l/m 5,1 km/h (1 Bft) S 1,00 h 0,203 mm 1,9 UV-I 515 W/m 0,5 C 8,6 C 8,7 km/h (2 Bft)
21.03.2015 11:00 10,8 C 53 % 1014,2 hPa 0,0 l/m 8,6 km/h (2 Bft) W-SW 1,00 h 0,254 mm 2,3 UV-I 583 W/m 1,7 C 9,2 C 13,9 km/h (3 Bft)
21.03.2015 12:00 11,4 C 52 % 1013,6 hPa 0,0 l/m 12,3 km/h (2 Bft) W 1,00 h 0,305 mm 2,0 UV-I 444 W/m 2,0 C 8,0 C 18,5 km/h (3 Bft)
21.03.2015 13:00 12,0 C 49 % 1013,2 hPa 0,0 l/m 12,3 km/h (2 Bft) W-SW 1,00 h 0,279 mm 2,0 UV-I 451 W/m 1,5 C 8,9 C 19,4 km/h (3 Bft)
21.03.2015 14:00 11,6 C 49 % 1013,0 hPa 0,0 l/m 13,2 km/h (3 Bft) W-NW 1,00 h 0,279 mm 1,3 UV-I 308 W/m 1,2 C 7,9 C 19,0 km/h (3 Bft)
21.03.2015 15:00 10,7 C 52 % 1013,1 hPa 0,0 l/m 11,3 km/h (2 Bft) W-NW 1,00 h 0,229 mm 0,7 UV-I 167 W/m 1,1 C 7,8 C 16,9 km/h (3 Bft)
21.03.2015 16:00 9,3 C 57 % 1013,4 hPa 0,0 l/m 11,8 km/h (2 Bft) NW 0,88 h 0,127 mm 0,5 UV-I 74 W/m 1,2 C 5,9 C 17,4 km/h (3 Bft)
21.03.2015 17:00 8,0 C 63 % 1013,6 hPa 0,0 l/m 6,6 km/h (2 Bft) N-NW 0,35 h 0,076 mm 0,0 UV-I 45 W/m 1,5 C 7,2 C 11,3 km/h (2 Bft)
21.03.2015 18:00 6,7 C 72 % 1014,3 hPa 0,0 l/m 6,5 km/h (2 Bft) N-NO 0,00 h 0,051 mm 0,0 UV-I 10 W/m 2,1 C 5,8 C 10,8 km/h (2 Bft)
21.03.2015 19:00 5,4 C 78 % 1015,3 hPa 0,0 l/m 9,6 km/h (2 Bft) N 0,00 h 0,025 mm 0,0 UV-I 0 W/m 1,8 C 2,8 C 15,1 km/h (3 Bft)
21.03.2015 20:00 4,6 C 80 % 1016,0 hPa 0,0 l/m 9,5 km/h (2 Bft) N 0,00 h 0,025 mm 0,0 UV-I 0 W/m 1,3 C 2,1 C 14,6 km/h (3 Bft)
21.03.2015 21:00 3,8 C 80 % 1016,6 hPa 0,0 l/m 9,2 km/h (2 Bft) N 0,00 h 0,027 mm 0,0 UV-I 0 W/m 0,7 C 1,3 C 14,6 km/h (3 Bft)
21.03.2015 22:00 3,5 C 80 % 1017,0 hPa 0,0 l/m 6,8 km/h (2 Bft) N 0,00 h 0,025 mm 0,0 UV-I 0 W/m 0,4 C 2,3 C 11,9 km/h (2 Bft)
21.03.2015 23:00 3,5 C 80 % 1017,4 hPa 0,0 l/m 6,2 km/h (2 Bft) N-NO 0,00 h 0,025 mm 0,0 UV-I 0 W/m 0,4 C 2,6 C 11,1 km/h (2 Bft)
22.03.2015 00:00 3,6 C 81 % 1017,8 hPa 0,0 l/m 3,1 km/h (1 Bft) N-NO 0,00 h 0,025 mm 0,0 UV-I 0 W/m 0,6 C 3,5 C 5,8 km/h (2 Bft)
22.03.2015 01:00 3,5 C 82 % 1018,2 hPa 0,0 l/m 2,2 km/h (1 Bft) N 0,00 h 0,025 mm 0,0 UV-I 0 W/m 0,7 C 3,5 C 4,4 km/h (1 Bft)
22.03.2015 02:00 3,4 C 83 % 1018,5 hPa 0,0 l/m 2,7 km/h (1 Bft) N-NO 0,00 h 0,000 mm 0,0 UV-I 0 W/m 0,8 C 3,4 C 5,3 km/h (1 Bft)
22.03.2015 03:00 3,3 C 83 % 1018,9 hPa 0,0 l/m 5,4 km/h (1 Bft) N 0,00 h 0,000 mm 0,0 UV-I 0 W/m 0,8 C 2,9 C 9,0 km/h (2 Bft)
22.03.2015 04:00 3,3 C 83 % 1019,2 hPa 0,0 l/m 4,2 km/h (1 Bft) N 0,00 h 0,025 mm 0,0 UV-I 0 W/m 0,7 C 3,2 C 7,5 km/h (2 Bft)
22.03.2015 05:00 3,3 C 83 % 1019,6 hPa 0,0 l/m 5,7 km/h (2 Bft) N-NO 0,00 h 0,025 mm 0,0 UV-I 0 W/m 0,7 C 2,8 C 9,9 km/h (2 Bft)
22.03.2015 06:00 3,2 C 82 % 1020,4 hPa 0,0 l/m 8,1 km/h (2 Bft) N-NO 0,00 h 0,025 mm 0,0 UV-I 7 W/m 0,4 C 1,4 C 13,7 km/h (3 Bft)
22.03.2015 07:00 3,2 C 82 % 1021,3 hPa 0,0 l/m 8,8 km/h (2 Bft) N-NO 0,00 h 0,025 mm 0,0 UV-I 32 W/m 0,4 C 1,0 C 13,7 km/h (3 Bft)
22.03.2015 08:00 3,5 C 80 % 1021,9 hPa 0,0 l/m 5,8 km/h (2 Bft) N-NO 0,65 h 0,025 mm 0,5 UV-I 58 W/m 0,4 C 2,7 C 10,8 km/h (2 Bft)
22.03.2015 09:00 4,1 C 74 % 1022,6 hPa 0,0 l/m 9,2 km/h (2 Bft) O-NO 1,00 h 0,025 mm 0,7 UV-I 126 W/m -0,0 C 1,8 C 16,1 km/h (3 Bft)
22.03.2015 10:00 5,3 C 70 % 1022,9 hPa 0,0 l/m 7,8 km/h (2 Bft) O-NO 1,00 h 0,076 mm 1,7 UV-I 231 W/m 0,3 C 3,6 C 14,8 km/h (3 Bft)
22.03.2015 11:00 6,4 C 65 % 1022,8 hPa 0,0 l/m 8,0 km/h (2 Bft) O-NO 1,00 h 0,102 mm 2,1 UV-I 524 W/m 0,4 C 4,8 C 15,0 km/h (3 Bft)
22.03.2015 12:00 7,1 C 65 % 1022,8 hPa 0,0 l/m 7,0 km/h (2 Bft) O-NO 1,00 h 0,305 mm 2,1 UV-I 604 W/m 1,0 C 6,0 C 13,8 km/h (3 Bft)
22.03.2015 13:00 7,5 C 65 % 1022,3 hPa 0,0 l/m 6,4 km/h (2 Bft) O-SO 1,00 h 0,279 mm 2,1 UV-I 634 W/m 1,3 C 6,7 C 12,5 km/h (2 Bft)
22.03.2015 14:00 7,7 C 62 % 1022,1 hPa 0,0 l/m 7,2 km/h (2 Bft) O-SO 1,00 h 0,279 mm 2,0 UV-I 543 W/m 0,9 C 6,4 C 13,5 km/h (3 Bft)
22.03.2015 15:00 7,5 C 61 % 1021,8 hPa 0,0 l/m 7,0 km/h (2 Bft) SO 1,00 h 0,254 mm 1,4 UV-I 404 W/m 0,4 C 6,6 C 13,3 km/h (3 Bft)
22.03.2015 16:00 6,3 C 65 % 1021,8 hPa 0,0 l/m 5,7 km/h (2 Bft) O-SO 1,00 h 0,203 mm 0,7 UV-I 147 W/m 0,2 C 5,9 C 11,7 km/h (2 Bft)
22.03.2015 17:00 5,0 C 70 % 1022,0 hPa 0,0 l/m 5,0 km/h (1 Bft) O 0,55 h 0,076 mm 0,0 UV-I 54 W/m -0,0 C 4,5 C 10,6 km/h (2 Bft)
22.03.2015 18:00 3,9 C 74 % 1022,5 hPa 0,0 l/m 3,1 km/h (1 Bft) O 0,00 h 0,025 mm 0,0 UV-I 12 W/m -0,4 C 3,8 C 7,4 km/h (2 Bft)
22.03.2015 19:00 3,0 C 77 % 1022,6 hPa 0,0 l/m 1,6 km/h (1 Bft) O-SO 0,00 h 0,000 mm 0,0 UV-I 0 W/m -0,7 C 3,0 C 4,5 km/h (1 Bft)
22.03.2015 20:00 2,3 C 79 % 1023,0 hPa 0,0 l/m 1,0 km/h (0 Bft) O-NO 0,00 h 0,025 mm 0,0 UV-I 0 W/m -1,0 C 2,2 C 3,2 km/h (1 Bft)
22.03.2015 21:00 1,5 C 81 % 1023,1 hPa 0,0 l/m 0,8 km/h (0 Bft) O-NO 0,00 h 0,000 mm 0,0 UV-I 0 W/m -1,4 C 1,5 C 2,7 km/h (1 Bft)
22.03.2015 22:00 0,9 C 83 % 1022,7 hPa 0,0 l/m 1,6 km/h (1 Bft) O 0,00 h 0,000 mm 0,0 UV-I 0 W/m -1,6 C 0,9 C 4,7 km/h (1 Bft)
22.03.2015 23:00 0,6 C 84 % 1022,4 hPa 0,0 l/m 1,0 km/h (0 Bft) N 0,00 h 0,000 mm 0,0 UV-I 0 W/m -1,7 C 0,6 C 3,0 km/h (1 Bft)
Min-Datum _ 21.03.15 20.03.15 21.03.15 - 16.03.15 - - - - - 20.03.15 21.03.15 16.03.15
_ Min-Zeit 06:26 15:00 14:54 - 00:09 - - - - - 15:05 21:36 00:18
Minimum _ -3,4 C 27 % 1012,9 hPa - 0,0 km/h (0 Bft) - - - - - -5,8 C -3,8 C 0,0 km/h (0 Bft)
Max-Datum _ 19.03.15 19.03.15 17.03.15 16.03.15 16.03.15 - 16.03.15 18.03.15 19.03.15 16.03.15 18.03.15 19.03.15 16.03.15
_ Max-Zeit 14:37 07:33 08:44 00:00 11:58 - 08:43 13:00 12:06 11:35 11:37 14:37 09:23
Maximum _ 15,4 C 94 % 1027,3 hPa 0,0 l/m 20,9 km/h
O (4 Bft)
- 0,10 h 0,381 mm 2,9 UV-I 828 W/m 7,8 C 15,4 C 35,4 km/h
O (5 Bft)
Durchschnitt _ 6,2 C 71 % 1023,1 hPa #0,0 l/m 4,4 km/h (1 Bft) N #70:19 h #14,997 mm 1,4 UV-I 283 W/m 0,8 C 5,5 C 8,2 km/h (2 Bft)